Marionville, Missouri
Current Conditions -  °F | °C
As of 9:14 AM on Wednesday 26 Nov 2014 (Local Time) from KSGF Reporting Station
Broken Clouds Broken Clouds  
Wind Chill: -1°   Ceiling: 3500
Heat Index:   Visibility: 10mi
Dew Point: -1°   Wind: 5mph
Humidity: 89%   Direction: 240°WSW
Pressure: 29.99"   Gusts: NA
Location:  37°N, 93.64°W
Report Text: KSGF 261514Z 24004KT 10SM FEW020 SCT025 BKN035 01/M01 A2999 RMK AO2 SNE05 P0000 T00111006
Loading
Personal Weather Stations






























Interactive Weather Map New forecast layout! Learn more

10-Day Weather Forecast

Advertisements
Track Severe Weather on mobile